Latest Weather Observations for Low Rocky Point

IDT60801

Issued at 8:35 pm EST Thursday 24 July 2014 (issued every 30 minutes, with the page automatically refreshed every 10 minutes)

About weather observations | Map of weather stations | Latest weather observations for TAS | Other Formats
Station Details ID: 097080 Name: LOW ROCKY POINT Lat: -42.98 Lon: 145.50 Height: 34.0 m
Data from the previous 72 hours. | See also: Recent months at Low Rocky Point
Date/Time
EST
Temp
°C
App
Temp
°C
Dew
Point
Rel
Hum
%
Delta-T
°C
Wind Press
QNH
hPa
Press
MSL
hPa
Rain
since 9 am
mm
Dir
 
Spd
km/h
Gust
km/h
Spd
kts
Gust
kts
24/08:30pm 6.8 2.2 3.8 81 1.3 ENE 17 19 9 10 1016.9 - 0.0
24/08:00pm 5.5 1.1 2.8 83 1.1 E 15 17 8 9 1016.8 1016.8 0.0
24/07:30pm 5.5 1.4 2.0 78 1.4 E 13 17 7 9 1016.6 - 0.0
24/07:00pm 7.1 1.7 2.6 73 1.9 NE 20 22 11 12 1016.5 1016.6 0.0
24/06:30pm 6.2 1.1 3.0 80 1.3 NE 19 20 10 11 1016.4 - 0.0
24/06:00pm 6.6 2.3 3.4 80 1.3 ENE 15 17 8 9 1016.5 1016.5 0.0
24/05:30pm 7.2 3.0 3.8 79 1.5 ENE 15 17 8 9 1016.5 - 0.0
24/05:00pm 8.7 5.0 4.3 74 1.9 NE 13 15 7 8 1016.6 1016.7 0.0
24/04:30pm 10.7 7.8 6.3 74 2.1 E 11 13 6 7 1016.7 - 0.0
24/04:00pm 12.6 9.8 7.1 69 2.7 E 11 13 6 7 1016.6 1016.7 0.0
24/03:30pm 12.8 10.9 7.5 70 2.6 ENE 7 11 4 6 1016.7 - 0.0
24/03:00pm 11.3 8.9 7.0 75 2.0 ENE 9 11 5 6 1016.6 1016.7 0.0
24/02:30pm 11.5 9.5 7.0 74 2.2 ENE 7 9 4 5 1016.7 - 0.0
24/02:00pm 11.7 9.7 7.0 73 2.2 E 7 9 4 5 1016.7 1016.8 0.0
24/01:30pm 12.4 9.9 6.7 68 2.7 ESE 9 11 5 6 1017.1 - 0.0
24/01:00pm 12.0 10.9 6.7 70 2.5 ENE 2 7 1 4 1017.6 1017.7 0.0
24/12:30pm 11.4 10.2 6.5 72 2.3 E 2 6 1 3 1017.8 - 0.0
24/12:00pm 11.4 9.6 7.3 76 2.0 SE 6 9 3 5 1018.1 1018.2 0.0
24/11:30am 11.6 9.6 7.3 75 2.1 ENE 7 9 4 5 1018.6 - 0.0
24/11:00am 10.6 7.8 7.1 79 1.7 NNE 11 13 6 7 1019.0 1019.1 0.0
24/10:30am 9.5 6.2 6.6 82 1.4 NNE 13 15 7 8 1019.1 - 0.0
24/10:00am 9.5 6.2 6.6 82 1.3 NNE 13 15 7 8 1019.2 1019.3 0.0
24/09:30am 7.9 3.7 5.5 85 1.1 NNE 17 20 9 11 1019.1 - 0.0
24/09:00am 6.9 2.1 4.6 85 1.0 NNE 19 22 10 12 1019.0 1019.1 0.0
24/08:30am 5.8 0.7 4.0 88 0.8 NNE 20 22 11 12 1018.9 - 0.0
24/08:00am 5.3 0.1 3.6 89 0.7 NNE 20 24 11 13 1018.9 1019.0 0.0
24/07:30am 5.4 -0.2 3.6 88 0.8 NNE 22 24 12 13 1018.8 - 0.0
24/07:00am 5.6 0.0 3.6 87 0.8 NNE 22 26 12 14 1018.7 1018.8 0.0
24/06:30am 6.1 0.6 3.9 86 0.9 NNE 22 26 12 14 1018.6 - 0.0
24/06:00am 6.5 0.7 4.3 86 0.9 NNE 24 28 13 15 1018.5 1018.5 0.0
24/05:30am 6.4 0.6 4.4 87 0.9 NNE 24 28 13 15 1018.4 - 0.0
24/05:00am 6.5 0.8 4.7 88 0.8 NNE 24 26 13 14 1018.3 1018.4 0.0
24/04:30am 6.1 0.3 4.6 90 0.6 NE 24 28 13 15 1018.3 - 0.0
24/04:00am 5.6 0.1 4.2 91 0.6 NE 22 26 12 14 1018.4 1018.5 0.0
24/03:30am 6.1 1.7 4.6 90 0.6 NE 17 20 9 11 1018.7 - 0.0
24/03:00am 6.6 1.7 5.2 91 0.6 NE 20 22 11 12 1018.6 1018.7 0.0
24/02:30am 6.7 2.1 5.5 92 0.5 NE 19 20 10 11 1018.8 - 0.0
24/02:00am 6.7 2.0 5.3 91 0.6 NE 19 20 10 11 1018.8 1018.9 0.0
24/01:30am 7.3 2.7 5.8 90 0.7 NNE 19 19 10 10 1019.0 - 0.0
24/01:00am 7.4 3.3 6.3 93 0.5 NE 17 19 9 10 1019.0 1019.1 0.0
24/12:30am 7.1 3.0 6.2 94 0.4 NE 17 19 9 10 1019.3 - 0.0
24/12:00am 7.1 2.6 6.2 94 0.4 NE 19 20 10 11 1019.6 1019.6 0.0
 
Date/Time
EST
Temp
°C
App
Temp
°C
Dew
Point
Rel
Hum
%
Delta-T
°C
Wind Press
QNH
hPa
Press
MSL
hPa
Rain
since 9 am
mm
Dir
 
Spd
km/h
Gust
km/h
Spd
kts
Gust
kts
23/11:30pm 7.4 3.0 6.5 94 0.4 NE 19 20 10 11 1019.8 - 0.0
23/11:00pm 7.5 3.5 6.8 95 0.3 NE 17 19 9 10 1020.0 1020.1 0.0
23/10:30pm 7.8 3.9 7.1 95 0.3 NE 17 19 9 10 1020.2 - 0.0
23/10:00pm 7.7 3.4 7.0 95 0.3 NE 19 20 10 11 1020.4 1020.5 0.0
23/09:30pm 7.7 3.4 7.0 95 0.3 NE 19 20 10 11 1020.5 - 0.0
23/09:00pm 7.8 3.9 7.1 95 0.3 NE 17 20 9 11 1020.7 1020.8 0.0
23/08:30pm 8.1 3.9 7.3 95 0.4 NE 19 20 10 11 1020.7 - 0.0
23/08:00pm 8.2 4.4 7.4 95 0.4 NE 17 20 9 11 1020.8 1020.9 0.0
23/07:30pm 8.2 4.7 7.1 93 0.5 NE 15 17 8 9 1020.8 - 0.0
23/07:00pm 8.4 5.6 7.0 91 0.7 ENE 11 13 6 7 1020.8 1020.9 0.0
23/06:30pm 8.7 7.9 6.7 87 0.9 CALM 0 0 0 0 1020.8 - 0.0
23/06:00pm 9.2 8.5 6.8 85 1.1 CALM 0 0 0 0 1020.7 1020.8 0.0
23/05:30pm 10.4 9.7 6.9 79 1.7 CALM 0 6 0 3 1020.8 - 0.0
23/05:00pm 10.9 9.2 7.6 80 1.6 WSW 6 9 3 5 1020.9 1021.0 0.0
23/04:30pm 11.2 8.6 7.9 80 1.6 WSW 11 15 6 8 1020.9 - 0.0
23/04:00pm 11.5 7.9 8.4 81 1.5 W 17 22 9 12 1021.0 1021.1 0.0
23/03:30pm 11.5 8.4 8.7 83 1.4 WNW 15 17 8 9 1021.0 - 0.0
23/03:00pm 11.3 7.8 8.7 84 1.3 WNW 17 20 9 11 1020.9 1021.0 0.0
23/02:30pm 11.5 8.3 8.5 82 1.5 WNW 15 19 8 10 1020.9 - 0.0
23/02:00pm 11.3 8.2 8.9 85 1.2 NW 15 20 8 11 1021.0 1021.1 0.0
23/01:30pm 11.2 7.7 8.9 86 1.1 WNW 17 20 9 11 1021.2 - 0.0
23/01:00pm 11.3 6.9 9.0 86 1.1 NW 22 26 12 14 1021.6 1021.7 0.0
23/12:30pm 11.8 9.6 9.4 85 1.2 NNW 11 19 6 10 1022.0 - 0.0
23/12:00pm 11.4 9.6 9.5 88 1.0 NW 9 13 5 7 1022.6 1022.7 0.0
23/11:30am 11.0 9.2 9.6 91 0.7 N 9 11 5 6 1023.1 - 0.0
23/11:00am 10.7 8.1 9.5 92 0.6 N 13 15 7 8 1023.5 1023.6 0.0
23/10:30am 10.3 8.5 9.4 94 0.4 N 9 13 5 7 1023.6 - 0.0
23/10:00am 9.8 6.7 8.9 94 0.4 N 15 19 8 10 1023.6 1023.7 0.0
23/09:30am 9.6 5.8 9.1 97 0.2 NNE 19 24 10 13 1023.6 - 0.0
23/09:00am 8.1 3.5 8.0 99 0.0 NNE 22 28 12 15 1023.4 1023.5 2.2
23/08:30am 7.3 2.5 7.2 99 0.0 NNE 22 28 12 15 1023.4 - 2.2
23/08:00am 6.9 2.0 6.8 99 0.0 NNE 22 26 12 14 1023.5 1023.6 2.2
23/07:30am 6.7 1.7 6.6 99 0.0 NNE 22 26 12 14 1023.4 - 2.2
23/07:00am 6.7 1.7 6.6 99 0.0 NNE 22 28 12 15 1023.3 1023.4 2.2
23/06:30am 6.8 1.9 6.7 99 0.0 NNE 22 26 12 14 1023.2 - 2.2
23/06:00am 7.0 2.1 6.9 99 0.0 NNE 22 26 12 14 1023.3 1023.4 2.2
23/05:30am 7.2 3.3 6.9 98 0.1 NNE 17 19 9 10 1023.3 - 2.2
23/05:00am 8.2 5.6 7.9 98 0.1 N 11 15 6 8 1023.4 1023.5 2.2
23/04:30am 9.0 6.3 8.9 99 0.0 N 13 17 7 9 1023.6 - 2.2
23/04:00am 8.2 5.6 7.9 98 0.1 N 11 13 6 7 1023.8 1023.9 2.2
23/03:30am 8.0 4.6 7.7 98 0.1 N 15 19 8 10 1023.9 - 2.0
23/03:00am 8.1 5.1 7.7 97 0.2 NNE 13 15 7 8 1024.0 1024.1 2.0
23/02:30am 8.6 5.3 8.2 97 0.2 N 15 17 8 9 1024.0 - 2.0
23/02:00am 8.5 6.7 7.9 96 0.3 NE 7 11 4 6 1023.9 1024.0 1.6
23/01:30am 8.9 7.3 8.1 95 0.4 N 6 7 3 4 1023.9 - 1.4
23/01:00am 8.8 5.5 7.9 94 0.4 N 15 17 8 9 1023.8 1023.9 0.6
23/12:30am 9.0 5.3 7.9 93 0.5 N 17 20 9 11 1024.0 - 0.4
23/12:00am 8.7 4.5 7.6 93 0.5 N 19 22 10 12 1024.0 1024.1 0.4
 
Date/Time
EST
Temp
°C
App
Temp
°C
Dew
Point
Rel
Hum
%
Delta-T
°C
Wind Press
QNH
hPa
Press
MSL
hPa
Rain
since 9 am
mm
Dir
 
Spd
km/h
Gust
km/h
Spd
kts
Gust
kts
22/11:30pm 8.6 4.8 7.5 93 0.5 N 17 20 9 11 1024.2 - 0.4
22/11:00pm 8.9 5.1 7.7 92 0.6 N 17 20 9 11 1024.4 1024.5 0.4
22/10:30pm 8.9 4.8 7.7 92 0.6 N 19 22 10 12 1024.4 - 0.4
22/10:00pm 8.8 4.6 7.6 92 0.6 N 19 22 10 12 1024.4 1024.5 0.4
22/09:30pm 8.6 4.4 7.4 92 0.6 N 19 20 10 11 1024.3 - 0.4
22/09:00pm 8.6 4.4 7.5 93 0.5 N 19 20 10 11 1024.3 1024.4 0.4
22/08:30pm 8.6 4.4 7.5 93 0.5 N 19 20 10 11 1024.3 - 0.4
22/08:00pm 8.4 4.5 7.3 93 0.5 N 17 20 9 11 1024.2 1024.3 0.4
22/07:30pm 8.5 4.1 7.3 92 0.6 N 20 26 11 14 1024.1 - 0.4
22/07:00pm 8.3 3.9 7.2 93 0.5 N 20 22 11 12 1024.2 1024.3 0.4
22/06:30pm 8.5 4.3 7.4 93 0.5 N 19 20 10 11 1024.3 - 0.4
22/06:00pm 9.2 5.5 8.1 93 0.5 N 17 20 9 11 1024.1 1024.2 0.4
22/05:30pm 9.7 6.5 8.6 93 0.5 N 15 19 8 10 1024.1 - 0.4
22/05:00pm 10.0 7.6 8.8 92 0.6 NNE 11 15 6 8 1024.0 1024.1 0.4
22/04:30pm 10.4 8.4 8.8 90 0.8 N 9 9 5 5 1023.9 - 0.2
22/04:00pm 10.7 8.7 8.8 88 0.9 N 9 13 5 7 1024.0 1024.1 0.2
22/03:30pm 11.2 7.2 8.9 86 1.1 NNW 20 32 11 17 1023.8 - 0.0
22/03:00pm 11.6 5.9 8.5 81 1.5 NNW 28 35 15 19 1023.8 1023.9 0.0
22/02:30pm 12.1 7.1 8.0 76 2.0 NNW 24 32 13 17 1023.7 - 0.0
22/02:00pm 12.3 6.9 7.8 74 2.2 NNW 26 33 14 18 1023.9 1024.0 0.0
22/01:30pm 12.5 6.8 8.2 75 2.1 NNW 28 33 15 18 1023.9 - 0.0
22/01:00pm 12.0 6.5 7.5 74 2.2 NNW 26 33 14 18 1024.3 1024.4 0.0
22/12:30pm 12.2 7.6 6.5 68 2.7 NNW 20 28 11 15 1024.6 - 0.0
22/12:00pm 12.0 7.5 6.3 68 2.7 NNW 19 24 10 13 1025.0 1025.1 0.0
22/11:30am 12.7 7.2 6.1 64 3.1 NNW 24 32 13 17 1025.3 - 0.0
22/11:00am 12.2 7.7 6.0 66 2.9 NNW 19 28 10 15 1025.5 1025.6 0.0
22/10:30am 12.1 7.5 5.7 65 3.0 NNW 19 28 10 15 1025.6 - 0.0
22/10:00am 10.2 5.9 5.4 72 2.2 N 17 24 9 13 1025.7 1025.8 0.0
22/09:30am 8.9 4.5 4.9 76 1.8 N 17 20 9 11 1025.7 - 0.0
22/09:00am 7.9 3.1 4.5 79 1.5 N 19 24 10 13 1025.6 1025.7 0.0
22/08:30am 7.2 2.1 4.2 81 1.3 N 20 24 11 13 1025.3 - -
22/08:00am 7.4 2.3 4.2 80 1.4 N 20 26 11 14 1025.0 1025.1 0.0
22/07:30am 7.5 2.5 4.5 81 1.3 N 20 26 11 14 1024.8 - -
22/07:00am 7.6 2.6 4.7 82 1.3 N 20 26 11 14 1024.6 1024.7 0.0
22/06:30am 7.7 2.0 5.0 83 1.2 N 24 28 13 15 1024.5 - -
22/06:00am 7.3 2.0 4.9 85 1.0 N 22 28 12 15 1024.2 1024.3 0.0
22/05:30am 7.6 2.0 5.4 86 1.0 N 24 28 13 15 1024.1 - -
22/05:00am 7.6 2.0 5.2 85 1.1 N 24 32 13 17 1024.2 1024.3 0.0
22/04:30am 7.3 2.0 4.9 85 1.1 N 22 30 12 16 1024.3 - -
22/04:00am 6.9 1.5 4.6 85 1.0 N 22 28 12 15 1024.3 1024.4 0.0
22/03:30am 7.2 1.9 4.9 85 1.0 N 22 28 12 15 1024.5 - -
22/03:00am 6.0 0.2 4.3 89 0.7 N 24 28 13 15 1024.6 1024.7 0.0
22/02:30am 6.0 0.2 4.3 89 0.7 N 24 28 13 15 1024.8 - -
22/02:00am 5.9 0.4 4.2 89 0.7 NNE 22 26 12 14 1024.8 1024.9 0.0
22/01:30am 5.8 0.7 4.0 88 0.8 NNE 20 26 11 14 1024.7 - -
22/01:00am 5.7 0.1 3.7 87 0.8 NNE 22 - 12 - - 1025.1 0.0
22/12:30am 5.9 0.0 3.9 87 0.8 NNE 24 28 13 15 1025.0 - 0.0
22/12:00am 6.1 1.0 3.9 86 0.9 NNE 20 24 11 13 1025.3 1025.4 0.0
 
Date/Time
EST
Temp
°C
App
Temp
°C
Dew
Point
Rel
Hum
%
Delta-T
°C
Wind Press
QNH
hPa
Press
MSL
hPa
Rain
since 9 am
mm
Dir
 
Spd
km/h
Gust
km/h
Spd
kts
Gust
kts
21/11:30pm 6.2 1.1 4.0 86 0.9 NNE 20 22 11 12 1025.5 - 0.0
21/11:00pm 6.3 0.8 4.0 85 1.0 NNE 22 24 12 13 1025.5 1025.6 0.0
21/10:30pm 6.6 1.2 4.3 85 1.0 NNE 22 24 12 13 1025.5 - 0.0
21/10:00pm 6.6 1.1 4.1 84 1.1 NNE 22 24 12 13 1025.4 1025.5 0.0
21/09:30pm 6.7 1.6 4.2 84 1.1 NNE 20 22 11 12 1025.4 - 0.0
21/09:00pm 6.9 2.1 4.4 84 1.1 NNE 19 20 10 11 1025.4 1025.5 0.0

Other Formats:

Comma delimited format used in spreadsheet applications
http://www.bom.gov.au/fwo/IDT60801/IDT60801.95961.axf

JavaScript Object Notation format (JSON) in row-major order
http://www.bom.gov.au/fwo/IDT60801/IDT60801.95961.json